Dangriga, Belize
Current Conditions -  °F | °C
As of 12:00 PM on Sunday 21 Dec 2014 (Local Time) from MZBZ Reporting Station
Scattered Clouds Scattered Clouds  
Wind Chill: 82°   Ceiling: Unl
Heat Index: 89°   Visibility: 6mi
Dew Point: 75°   Wind: 5mph
Humidity: 79%   Direction: 100°E
Pressure: 29.96"   Gusts: NA
Location:  16.97°N, 88.22°W
Report Text: MZBZ 211800Z 10004KT 9999 SCT020 28/24 A2996 Q1014 NOSIG
Loading
Personal Weather Stations






























Interactive Weather Map New forecast layout! Learn more

10-Day Weather Forecast

Advertisements
Track Severe Weather on mobile